sensor_id;sensor_type;location;lat;lon;timestamp;pressure;altitude;pressure_sealevel;temperature;humidity
62544;BME280;48597;49.030;1.822;2023-05-12T00:00:02;100923.59;;;20.54;50.31
62544;BME280;48597;49.030;1.822;2023-05-12T00:02:30;100930.94;;;20.55;50.03
62544;BME280;48597;49.030;1.822;2023-05-12T00:04:56;100939.97;;;20.54;50.10
62544;BME280;48597;49.030;1.822;2023-05-12T00:07:21;100937.91;;;20.54;50.10
62544;BME280;48597;49.030;1.822;2023-05-12T00:09:47;100928.97;;;20.52;50.02
62544;BME280;48597;49.030;1.822;2023-05-12T00:12:12;100926.91;;;20.53;50.22
62544;BME280;48597;49.030;1.822;2023-05-12T00:14:37;100933.91;;;20.52;50.08
62544;BME280;48597;49.030;1.822;2023-05-12T00:17:04;100927.38;;;20.51;50.29
62544;BME280;48597;49.030;1.822;2023-05-12T00:19:31;100922.94;;;20.50;50.10
62544;BME280;48597;49.030;1.822;2023-05-12T00:21:57;100927.84;;;20.50;50.16
62544;BME280;48597;49.030;1.822;2023-05-12T00:24:22;100925.00;;;20.50;50.17
62544;BME280;48597;49.030;1.822;2023-05-12T00:26:48;100926.25;;;20.49;49.92
62544;BME280;48597;49.030;1.822;2023-05-12T00:29:13;100918.91;;;20.48;49.89
62544;BME280;48597;49.030;1.822;2023-05-12T00:31:38;100923.81;;;20.47;49.89
62544;BME280;48597;49.030;1.822;2023-05-12T00:34:04;100926.69;;;20.47;49.81
62544;BME280;48597;49.030;1.822;2023-05-12T00:36:29;100917.28;;;20.47;49.80
62544;BME280;48597;49.030;1.822;2023-05-12T00:38:54;100917.28;;;20.47;49.76
62544;BME280;48597;49.030;1.822;2023-05-12T00:41:20;100919.00;;;20.44;50.15
62544;BME280;48597;49.030;1.822;2023-05-12T00:43:46;100916.94;;;20.45;50.07
62544;BME280;48597;49.030;1.822;2023-05-12T00:46:11;100925.53;;;20.45;50.05
62544;BME280;48597;49.030;1.822;2023-05-12T00:48:37;100915.34;;;20.44;49.83
62544;BME280;48597;49.030;1.822;2023-05-12T00:51:03;100912.91;;;20.42;49.80
62544;BME280;48597;49.030;1.822;2023-05-12T00:53:30;100920.72;;;20.42;49.72
62544;BME280;48597;49.030;1.822;2023-05-12T00:55:55;100915.78;;;20.42;49.79
62544;BME280;48597;49.030;1.822;2023-05-12T00:58:22;100921.50;;;20.42;50.00
62544;BME280;48597;49.030;1.822;2023-05-12T01:00:47;100912.91;;;20.42;49.93
62544;BME280;48597;49.030;1.822;2023-05-12T01:03:13;100919.09;;;20.41;49.98
62544;BME280;48597;49.030;1.822;2023-05-12T01:08:07;100913.81;;;20.39;49.83
62544;BME280;48597;49.030;1.822;2023-05-12T01:10:33;100913.81;;;20.39;49.86
62544;BME280;48597;49.030;1.822;2023-05-12T01:12:59;100904.44;;;20.39;49.78
62544;BME280;48597;49.030;1.822;2023-05-12T01:15:24;100908.56;;;20.38;50.01
62544;BME280;48597;49.030;1.822;2023-05-12T01:17:56;100915.09;;;20.38;49.80
62544;BME280;48597;49.030;1.822;2023-05-12T01:20:26;100915.56;;;20.37;49.85
62544;BME280;48597;49.030;1.822;2023-05-12T01:22:53;100920.03;;;20.38;49.74
62544;BME280;48597;49.030;1.822;2023-05-12T01:25:21;100918.41;;;20.37;49.99
62544;BME280;48597;49.030;1.822;2023-05-12T01:27:48;100920.91;;;20.34;50.06
62544;BME280;48597;49.030;1.822;2023-05-12T01:30:17;100920.09;;;20.34;49.96
62544;BME280;48597;49.030;1.822;2023-05-12T01:32:43;100925.00;;;20.33;49.75
62544;BME280;48597;49.030;1.822;2023-05-12T01:35:09;100924.22;;;20.33;49.92
62544;BME280;48597;49.030;1.822;2023-05-12T01:37:34;100923.41;;;20.32;49.94
62544;BME280;48597;49.030;1.822;2023-05-12T01:40:00;100927.53;;;20.31;49.98
62544;BME280;48597;49.030;1.822;2023-05-12T01:42:26;100916.88;;;20.32;49.86
62544;BME280;48597;49.030;1.822;2023-05-12T01:44:51;100918.56;;;20.29;49.99
62544;BME280;48597;49.030;1.822;2023-05-12T01:47:17;100922.25;;;20.30;49.88
62544;BME280;48597;49.030;1.822;2023-05-12T01:49:42;100916.97;;;20.28;50.06
62544;BME280;48597;49.030;1.822;2023-05-12T01:52:07;100921.09;;;20.27;49.91
62544;BME280;48597;49.030;1.822;2023-05-12T01:54:33;100914.09;;;20.28;49.87
62544;BME280;48597;49.030;1.822;2023-05-12T01:56:58;100912.50;;;20.27;49.92
62544;BME280;48597;49.030;1.822;2023-05-12T01:59:24;100910.88;;;20.26;49.85
62544;BME280;48597;49.030;1.822;2023-05-12T02:01:49;100915.00;;;20.25;49.88
62544;BME280;48597;49.030;1.822;2023-05-12T02:04:14;100915.00;;;20.25;50.14
62544;BME280;48597;49.030;1.822;2023-05-12T02:06:40;100906.41;;;20.25;49.93
62544;BME280;48597;49.030;1.822;2023-05-12T02:09:05;100909.28;;;20.25;49.76
62544;BME280;48597;49.030;1.822;2023-05-12T02:11:31;100909.75;;;20.24;49.76
62544;BME280;48597;49.030;1.822;2023-05-12T02:13:56;100906.09;;;20.23;49.96
62544;BME280;48597;49.030;1.822;2023-05-12T02:16:22;100906.09;;;20.23;49.76
62544;BME280;48597;49.030;1.822;2023-05-12T02:18:48;100905.28;;;20.23;49.92
62544;BME280;48597;49.030;1.822;2023-05-12T02:21:13;100900.81;;;20.22;49.93
62544;BME280;48597;49.030;1.822;2023-05-12T02:23:38;100913.06;;;20.22;49.79
62544;BME280;48597;49.030;1.822;2023-05-12T02:26:04;100909.03;;;20.20;49.86
62544;BME280;48597;49.030;1.822;2023-05-12T02:28:29;100909.03;;;20.20;49.88
62544;BME280;48597;49.030;1.822;2023-05-12T02:30:55;100916.03;;;20.19;49.93
62544;BME280;48597;49.030;1.822;2023-05-12T02:33:21;100913.16;;;20.19;49.91
62544;BME280;48597;49.030;1.822;2023-05-12T02:35:47;100909.50;;;20.18;49.82
62544;BME280;48597;49.030;1.822;2023-05-12T02:38:12;100899.31;;;20.17;49.95
62544;BME280;48597;49.030;1.822;2023-05-12T02:40:38;100909.94;;;20.17;49.73
62544;BME280;48597;49.030;1.822;2023-05-12T02:43:03;100906.28;;;20.16;49.95
62544;BME280;48597;49.030;1.822;2023-05-12T02:45:29;100902.63;;;20.16;49.80
62544;BME280;48597;49.030;1.822;2023-05-12T02:47:55;100913.25;;;20.15;49.78
62544;BME280;48597;49.030;1.822;2023-05-12T02:50:20;100903.06;;;20.14;49.70
62544;BME280;48597;49.030;1.822;2023-05-12T02:52:46;100903.88;;;20.15;49.79
62544;BME280;48597;49.030;1.822;2023-05-12T02:55:12;100908.78;;;20.14;49.75
62544;BME280;48597;49.030;1.822;2023-05-12T02:57:37;100912.91;;;20.13;49.97
62544;BME280;48597;49.030;1.822;2023-05-12T03:00:03;100911.31;;;20.12;49.74
62544;BME280;48597;49.030;1.822;2023-05-12T03:02:35;100903.50;;;20.13;49.80
62544;BME280;48597;49.030;1.822;2023-05-12T03:05:01;100908.47;;;20.12;49.85
62544;BME280;48597;49.030;1.822;2023-05-12T03:07:27;100911.31;;;20.12;49.81
62544;BME280;48597;49.030;1.822;2023-05-12T03:09:52;100909.72;;;20.11;49.83
62544;BME280;48597;49.030;1.822;2023-05-12T03:12:18;100916.69;;;20.10;49.87
62544;BME280;48597;49.030;1.822;2023-05-12T03:14:43;100908.09;;;20.10;49.75
62544;BME280;48597;49.030;1.822;2023-05-12T03:17:09;100910.16;;;20.10;49.96
62544;BME280;48597;49.030;1.822;2023-05-12T03:19:34;100897.91;;;20.09;49.76
62544;BME280;48597;49.030;1.822;2023-05-12T03:22:00;100905.69;;;20.09;49.99
62544;BME280;48597;49.030;1.822;2023-05-12T03:24:26;100907.75;;;20.08;50.05
62544;BME280;48597;49.030;1.822;2023-05-12T03:26:51;100906.13;;;20.07;49.92
62544;BME280;48597;49.030;1.822;2023-05-12T03:29:17;100906.13;;;20.07;49.92
62544;BME280;48597;49.030;1.822;2023-05-12T03:31:42;100908.19;;;20.07;49.95
62544;BME280;48597;49.030;1.822;2023-05-12T03:34:07;100905.78;;;20.05;49.72
62544;BME280;48597;49.030;1.822;2023-05-12T03:36:33;100906.59;;;20.06;49.75
62544;BME280;48597;49.030;1.822;2023-05-12T03:38:58;100905.78;;;20.05;49.81
62544;BME280;48597;49.030;1.822;2023-05-12T03:41:23;100910.69;;;20.05;49.84
62544;BME280;48597;49.030;1.822;2023-05-12T03:43:49;100913.56;;;20.05;49.83
62544;BME280;48597;49.030;1.822;2023-05-12T03:46:14;100911.94;;;20.04;49.80
62544;BME280;48597;49.030;1.822;2023-05-12T03:48:40;100908.28;;;20.03;49.95
62544;BME280;48597;49.030;1.822;2023-05-12T03:51:05;100918.94;;;20.03;49.89
62544;BME280;48597;49.030;1.822;2023-05-12T03:56:53;100907.25;;;19.97;50.00
62544;BME280;48597;49.030;1.822;2023-05-12T03:59:33;100914.56;;;19.98;49.95
62544;BME280;48597;49.030;1.822;2023-05-12T04:01:59;100917.44;;;19.98;50.21
62544;BME280;48597;49.030;1.822;2023-05-12T04:04:24;100916.63;;;19.97;50.17
62544;BME280;48597;49.030;1.822;2023-05-12T04:06:49;100915.03;;;19.96;50.04
62544;BME280;48597;49.030;1.822;2023-05-12T04:09:15;100917.88;;;19.96;50.02
62544;BME280;48597;49.030;1.822;2023-05-12T04:11:42;100913.41;;;19.95;50.06
62544;BME280;48597;49.030;1.822;2023-05-12T04:14:09;100917.06;;;19.96;50.04
62544;BME280;48597;49.030;1.822;2023-05-12T04:16:34;100914.66;;;19.94;50.22
62544;BME280;48597;49.030;1.822;2023-05-12T04:19:01;100910.19;;;19.93;50.04
62544;BME280;48597;49.030;1.822;2023-05-12T04:21:28;100912.25;;;19.93;50.19
62544;BME280;48597;49.030;1.822;2023-05-12T04:23:53;100907.78;;;19.92;50.18
62544;BME280;48597;49.030;1.822;2023-05-12T04:26:25;100915.56;;;19.91;50.03
62544;BME280;48597;49.030;1.822;2023-05-12T04:28:51;100914.75;;;19.91;50.02
62544;BME280;48597;49.030;1.822;2023-05-12T04:31:16;100908.22;;;19.90;50.18
62544;BME280;48597;49.030;1.822;2023-05-12T04:33:42;100916.44;;;19.88;50.14
62544;BME280;48597;49.030;1.822;2023-05-12T04:36:07;100918.50;;;19.88;50.22
62544;BME280;48597;49.030;1.822;2023-05-12T04:38:33;100913.22;;;19.86;50.19
62544;BME280;48597;49.030;1.822;2023-05-12T04:40:58;100919.44;;;19.85;50.11
62544;BME280;48597;49.030;1.822;2023-05-12T04:43:24;100916.56;;;19.85;50.04
62544;BME280;48597;49.030;1.822;2023-05-12T04:45:50;100923.53;;;19.84;50.10
62544;BME280;48597;49.030;1.822;2023-05-12T04:48:15;100925.16;;;19.85;50.07
62544;BME280;48597;49.030;1.822;2023-05-12T04:50:41;100920.31;;;19.82;50.15
62544;BME280;48597;49.030;1.822;2023-05-12T04:53:06;100930.50;;;19.83;50.17
62544;BME280;48597;49.030;1.822;2023-05-12T04:55:32;100932.56;;;19.82;50.16
62544;BME280;48597;49.030;1.822;2023-05-12T04:57:57;100933.00;;;19.81;50.25
62544;BME280;48597;49.030;1.822;2023-05-12T05:00:22;100931.75;;;19.82;50.19
62544;BME280;48597;49.030;1.822;2023-05-12T05:02:48;100935.06;;;19.80;50.09
62544;BME280;48597;49.030;1.822;2023-05-12T05:05:13;100934.72;;;19.78;50.26
62544;BME280;48597;49.030;1.822;2023-05-12T05:07:39;100949.38;;;19.80;50.60
62544;BME280;48597;49.030;1.822;2023-05-12T05:10:04;100939.63;;;19.78;50.17
62544;BME280;48597;49.030;1.822;2023-05-12T05:12:31;100944.53;;;19.77;50.22
62544;BME280;48597;49.030;1.822;2023-05-12T05:14:56;100944.53;;;19.77;50.12
62544;BME280;48597;49.030;1.822;2023-05-12T05:17:21;100955.19;;;19.77;50.23
62544;BME280;48597;49.030;1.822;2023-05-12T05:19:47;100944.97;;;19.76;50.16
62544;BME280;48597;49.030;1.822;2023-05-12T05:22:13;100957.69;;;19.75;50.13
62544;BME280;48597;49.030;1.822;2023-05-12T05:24:40;100957.69;;;19.75;50.18
62544;BME280;48597;49.030;1.822;2023-05-12T05:27:06;100959.72;;;19.74;50.00
62544;BME280;48597;49.030;1.822;2023-05-12T05:29:31;100960.53;;;19.75;50.09
62544;BME280;48597;49.030;1.822;2023-05-12T05:31:57;100957.69;;;19.75;50.07
62544;BME280;48597;49.030;1.822;2023-05-12T05:34:22;100961.78;;;19.74;50.09
62544;BME280;48597;49.030;1.822;2023-05-12T05:36:47;100961.00;;;19.73;50.21
62544;BME280;48597;49.030;1.822;2023-05-12T05:39:14;100954.47;;;19.73;50.19
62544;BME280;48597;49.030;1.822;2023-05-12T05:41:39;100955.28;;;19.73;50.18
62544;BME280;48597;49.030;1.822;2023-05-12T05:44:05;100945.91;;;19.73;50.20
62544;BME280;48597;49.030;1.822;2023-05-12T05:46:32;100959.72;;;19.74;49.88
62544;BME280;48597;49.030;1.822;2023-05-12T05:48:59;100949.09;;;19.75;49.92
62544;BME280;48597;49.030;1.822;2023-05-12T05:51:24;100954.00;;;19.74;49.89
62544;BME280;48597;49.030;1.822;2023-05-12T05:53:50;100955.28;;;19.73;49.90
62544;BME280;48597;49.030;1.822;2023-05-12T05:56:15;100951.94;;;19.75;49.73
62544;BME280;48597;49.030;1.822;2023-05-12T05:58:40;100965.00;;;19.76;50.05
62544;BME280;48597;49.030;1.822;2023-05-12T06:01:06;100965.00;;;19.76;49.90
62544;BME280;48597;49.030;1.822;2023-05-12T06:03:40;100965.81;;;19.76;49.88
62544;BME280;48597;49.030;1.822;2023-05-12T06:06:06;100962.94;;;19.76;49.90
62544;BME280;48597;49.030;1.822;2023-05-12T06:08:31;100960.91;;;19.77;50.02
62544;BME280;48597;49.030;1.822;2023-05-12T06:10:56;100964.13;;;19.79;49.87
62544;BME280;48597;49.030;1.822;2023-05-12T06:13:22;100969.84;;;19.79;50.01
62544;BME280;48597;49.030;1.822;2023-05-12T06:15:47;100971.44;;;19.80;49.90
62544;BME280;48597;49.030;1.822;2023-05-12T06:18:12;100970.63;;;19.79;49.96
62544;BME280;48597;49.030;1.822;2023-05-12T06:20:38;100964.47;;;19.81;49.75
62544;BME280;48597;49.030;1.822;2023-05-12T06:23:03;100966.53;;;19.80;50.02
62544;BME280;48597;49.030;1.822;2023-05-12T06:25:29;100959.13;;;19.83;49.98
62544;BME280;48597;49.030;1.822;2023-05-12T06:27:57;100961.53;;;19.84;50.27
62544;BME280;48597;49.030;1.822;2023-05-12T06:30:23;100961.53;;;19.84;49.97
62544;BME280;48597;49.030;1.822;2023-05-12T06:32:48;100965.19;;;19.85;49.94
62544;BME280;48597;49.030;1.822;2023-05-12T06:35:14;100962.66;;;19.87;50.13
62544;BME280;48597;49.030;1.822;2023-05-12T06:37:39;100959.00;;;19.86;50.08
62544;BME280;48597;49.030;1.822;2023-05-12T06:40:07;100963.03;;;19.89;50.28
62544;BME280;48597;49.030;1.822;2023-05-12T06:42:33;100977.31;;;19.89;50.31
62544;BME280;48597;49.030;1.822;2023-05-12T06:44:58;100965.88;;;19.89;50.24
62544;BME280;48597;49.030;1.822;2023-05-12T06:47:24;100980.56;;;19.91;50.21
62544;BME280;48597;49.030;1.822;2023-05-12T06:49:50;100974.81;;;19.91;50.36
62544;BME280;48597;49.030;1.822;2023-05-12T06:52:15;100980.56;;;19.91;50.24
62544;BME280;48597;49.030;1.822;2023-05-12T06:54:41;100970.72;;;19.92;50.32
62544;BME280;48597;49.030;1.822;2023-05-12T06:57:08;100974.38;;;19.92;50.09
62544;BME280;48597;49.030;1.822;2023-05-12T06:59:34;100976.00;;;19.93;50.38
62544;BME280;48597;49.030;1.822;2023-05-12T07:02:04;100974.75;;;19.94;50.42
62544;BME280;48597;49.030;1.822;2023-05-12T07:04:30;100976.00;;;19.93;50.43
62544;BME280;48597;49.030;1.822;2023-05-12T07:06:55;100972.69;;;19.95;50.42
62544;BME280;48597;49.030;1.822;2023-05-12T07:09:20;100979.22;;;19.95;50.45
62544;BME280;48597;49.030;1.822;2023-05-12T07:11:46;100977.97;;;19.96;50.45
62544;BME280;48597;49.030;1.822;2023-05-12T07:14:12;100975.09;;;19.96;50.44
62544;BME280;48597;49.030;1.822;2023-05-12T07:16:39;100980.38;;;19.98;50.55
62544;BME280;48597;49.030;1.822;2023-05-12T07:19:05;100974.66;;;19.98;50.20
62544;BME280;48597;49.030;1.822;2023-05-12T07:21:34;100980.38;;;19.98;50.60
62544;BME280;48597;49.030;1.822;2023-05-12T07:24:00;100981.19;;;19.98;50.43
62544;BME280;48597;49.030;1.822;2023-05-12T07:26:26;100980.72;;;20.00;50.29
62544;BME280;48597;49.030;1.822;2023-05-12T07:28:54;100982.31;;;20.01;50.08
62544;BME280;48597;49.030;1.822;2023-05-12T07:31:19;100982.31;;;20.01;50.10
62544;BME280;48597;49.030;1.822;2023-05-12T07:33:45;100975.78;;;20.01;50.07
62544;BME280;48597;49.030;1.822;2023-05-12T07:36:10;100979.47;;;20.01;50.20
62544;BME280;48597;49.030;1.822;2023-05-12T07:38:35;100974.53;;;20.02;50.08
62544;BME280;48597;49.030;1.822;2023-05-12T07:41:01;100971.69;;;20.02;50.11
62544;BME280;48597;49.030;1.822;2023-05-12T07:43:28;100969.63;;;20.02;50.37
62544;BME280;48597;49.030;1.822;2023-05-12T07:45:53;100976.16;;;20.03;50.18
62544;BME280;48597;49.030;1.822;2023-05-12T07:48:20;100976.16;;;20.03;50.11
62544;BME280;48597;49.030;1.822;2023-05-12T07:50:45;100966.75;;;20.02;49.89
62544;BME280;48597;49.030;1.822;2023-05-12T07:53:11;100966.75;;;20.02;50.05
62544;BME280;48597;49.030;1.822;2023-05-12T07:55:36;100968.38;;;20.03;50.07
62544;BME280;48597;49.030;1.822;2023-05-12T07:58:02;100966.31;;;20.04;49.90
62544;BME280;48597;49.030;1.822;2023-05-12T08:00:28;100965.50;;;20.03;49.92
62544;BME280;48597;49.030;1.822;2023-05-12T08:02:53;100970.78;;;20.05;49.92
62544;BME280;48597;49.030;1.822;2023-05-12T08:05:19;100967.56;;;20.03;49.88
62544;BME280;48597;49.030;1.822;2023-05-12T08:07:44;100970.44;;;20.03;49.76
62544;BME280;48597;49.030;1.822;2023-05-12T08:10:11;100969.19;;;20.04;49.98
62544;BME280;48597;49.030;1.822;2023-05-12T08:12:40;100969.19;;;20.04;49.80
62544;BME280;48597;49.030;1.822;2023-05-12T08:15:07;100972.03;;;20.04;49.87
62544;BME280;48597;49.030;1.822;2023-05-12T08:17:32;100971.59;;;20.05;49.80
62544;BME280;48597;49.030;1.822;2023-05-12T08:19:58;100965.06;;;20.05;49.80
62544;BME280;48597;49.030;1.822;2023-05-12T08:22:23;100969.53;;;20.06;49.86
62544;BME280;48597;49.030;1.822;2023-05-12T08:24:48;100974.44;;;20.05;49.82
62544;BME280;48597;49.030;1.822;2023-05-12T08:27:14;100971.59;;;20.05;49.94
62544;BME280;48597;49.030;1.822;2023-05-12T08:29:39;100967.47;;;20.06;49.91
62544;BME280;48597;49.030;1.822;2023-05-12T08:32:05;100966.66;;;20.06;49.93
62544;BME280;48597;49.030;1.822;2023-05-12T08:34:30;100967.47;;;20.06;49.91
62544;BME280;48597;49.030;1.822;2023-05-12T08:36:56;100980.53;;;20.07;49.98
62544;BME280;48597;49.030;1.822;2023-05-12T08:39:21;100974.00;;;20.07;49.89
62544;BME280;48597;49.030;1.822;2023-05-12T08:44:38;100980.53;;;20.07;49.88
62544;BME280;48597;49.030;1.822;2023-05-12T08:47:04;100979.28;;;20.08;50.04
62544;BME280;48597;49.030;1.822;2023-05-12T08:49:31;100978.03;;;20.09;49.76
62544;BME280;48597;49.030;1.822;2023-05-12T08:51:58;100980.91;;;20.09;49.65
62544;BME280;48597;49.030;1.822;2023-05-12T08:54:26;100980.09;;;20.09;49.80
62544;BME280;48597;49.030;1.822;2023-05-12T08:56:53;100983.75;;;20.09;49.71
62544;BME280;48597;49.030;1.822;2023-05-12T08:59:18;100984.56;;;20.10;49.70
62544;BME280;48597;49.030;1.822;2023-05-12T09:01:44;100985.38;;;20.10;49.56
62544;BME280;48597;49.030;1.822;2023-05-12T09:04:12;100975.97;;;20.10;49.69
62544;BME280;48597;49.030;1.822;2023-05-12T09:06:40;100978.03;;;20.09;49.60
62544;BME280;48597;49.030;1.822;2023-05-12T09:09:06;100983.75;;;20.09;49.83
62544;BME280;48597;49.030;1.822;2023-05-12T09:11:32;100987.41;;;20.10;49.69
62544;BME280;48597;49.030;1.822;2023-05-12T09:14:07;100985.38;;;20.10;49.68
62544;BME280;48597;49.030;1.822;2023-05-12T09:16:38;100986.16;;;20.11;49.75
62544;BME280;48597;49.030;1.822;2023-05-12T09:19:03;100983.75;;;20.09;49.97
62544;BME280;48597;49.030;1.822;2023-05-12T09:21:30;100993.94;;;20.10;49.87
62544;BME280;48597;49.030;1.822;2023-05-12T09:23:59;100992.69;;;20.11;49.82
62544;BME280;48597;49.030;1.822;2023-05-12T09:26:26;100988.22;;;20.10;49.78
62544;BME280;48597;49.030;1.822;2023-05-12T09:28:54;100988.22;;;20.10;49.79
62544;BME280;48597;49.030;1.822;2023-05-12T09:31:22;100993.16;;;20.10;49.84
62544;BME280;48597;49.030;1.822;2023-05-12T09:33:49;100986.97;;;20.11;49.69
62544;BME280;48597;49.030;1.822;2023-05-12T09:36:19;100996.81;;;20.10;50.10
62544;BME280;48597;49.030;1.822;2023-05-12T09:38:46;100991.09;;;20.10;49.82
62544;BME280;48597;49.030;1.822;2023-05-12T09:41:21;100993.94;;;20.10;49.78
62544;BME280;48597;49.030;1.822;2023-05-12T09:43:46;100989.47;;;20.09;49.80
62544;BME280;48597;49.030;1.822;2023-05-12T09:46:12;100990.28;;;20.10;49.85
62544;BME280;48597;49.030;1.822;2023-05-12T09:48:38;100985.38;;;20.10;49.83
62544;BME280;48597;49.030;1.822;2023-05-12T09:51:04;100989.03;;;20.11;49.69
62544;BME280;48597;49.030;1.822;2023-05-12T09:53:29;100989.84;;;20.11;49.79
62544;BME280;48597;49.030;1.822;2023-05-12T09:55:55;100989.84;;;20.11;49.71
62544;BME280;48597;49.030;1.822;2023-05-12T09:58:22;100988.59;;;20.12;49.72
62544;BME280;48597;49.030;1.822;2023-05-12T10:00:51;100986.97;;;20.11;49.81
62544;BME280;48597;49.030;1.822;2023-05-12T10:03:19;100984.91;;;20.12;49.77
62544;BME280;48597;49.030;1.822;2023-05-12T10:05:52;100984.91;;;20.12;49.89
62544;BME280;48597;49.030;1.822;2023-05-12T10:08:21;100979.19;;;20.12;49.73
62544;BME280;48597;49.030;1.822;2023-05-12T10:10:48;100982.06;;;20.12;49.82
62544;BME280;48597;49.030;1.822;2023-05-12T10:13:16;100987.78;;;20.12;49.79
62544;BME280;48597;49.030;1.822;2023-05-12T10:15:43;100976.34;;;20.12;49.79
62544;BME280;48597;49.030;1.822;2023-05-12T10:18:08;100971.41;;;20.12;49.88
62544;BME280;48597;49.030;1.822;2023-05-12T10:20:35;100974.28;;;20.12;49.90
62544;BME280;48597;49.030;1.822;2023-05-12T10:23:00;100971.41;;;20.12;49.73
62544;BME280;48597;49.030;1.822;2023-05-12T10:25:28;100971.41;;;20.12;49.99
62544;BME280;48597;49.030;1.822;2023-05-12T10:27:55;100971.41;;;20.12;49.84
62544;BME280;48597;49.030;1.822;2023-05-12T10:30:23;100970.63;;;20.12;49.85
62544;BME280;48597;49.030;1.822;2023-05-12T10:32:48;100967.75;;;20.12;50.04
62544;BME280;48597;49.030;1.822;2023-05-12T10:35:15;100964.88;;;20.12;49.98
62544;BME280;48597;49.030;1.822;2023-05-12T10:37:41;100957.09;;;20.12;49.94
62544;BME280;48597;49.030;1.822;2023-05-12T10:40:07;100957.09;;;20.12;50.00
62544;BME280;48597;49.030;1.822;2023-05-12T10:42:41;100967.28;;;20.13;49.99
62544;BME280;48597;49.030;1.822;2023-05-12T10:45:15;100955.03;;;20.13;49.91
62544;BME280;48597;49.030;1.822;2023-05-12T10:47:46;100948.53;;;20.12;50.02
62544;BME280;48597;49.030;1.822;2023-05-12T10:50:12;100959.97;;;20.12;49.91
62544;BME280;48597;49.030;1.822;2023-05-12T10:52:39;100956.63;;;20.14;49.84
62544;BME280;48597;49.030;1.822;2023-05-12T10:55:10;100949.28;;;20.13;49.83
62544;BME280;48597;49.030;1.822;2023-05-12T10:57:47;100952.97;;;20.13;49.73
62544;BME280;48597;49.030;1.822;2023-05-12T11:00:14;100949.78;;;20.11;50.21
62544;BME280;48597;49.030;1.822;2023-05-12T11:02:48;100948.53;;;20.12;50.04
62544;BME280;48597;49.030;1.822;2023-05-12T11:05:16;100949.78;;;20.11;49.91
62544;BME280;48597;49.030;1.822;2023-05-12T11:07:46;100935.47;;;20.11;49.99
62544;BME280;48597;49.030;1.822;2023-05-12T11:10:13;100938.31;;;20.11;49.94
62544;BME280;48597;49.030;1.822;2023-05-12T11:12:38;100930.53;;;20.12;50.02
62544;BME280;48597;49.030;1.822;2023-05-12T11:15:04;100935.00;;;20.13;49.92
62544;BME280;48597;49.030;1.822;2023-05-12T11:17:30;100931.34;;;20.12;49.98
62544;BME280;48597;49.030;1.822;2023-05-12T11:19:56;100932.13;;;20.13;50.16
62544;BME280;48597;49.030;1.822;2023-05-12T11:22:23;100932.13;;;20.13;49.97
62544;BME280;48597;49.030;1.822;2023-05-12T11:24:50;100937.06;;;20.12;50.06
62544;BME280;48597;49.030;1.822;2023-05-12T11:27:18;100942.00;;;20.12;49.92
62544;BME280;48597;49.030;1.822;2023-05-12T11:29:44;100947.72;;;20.12;49.90
62544;BME280;48597;49.030;1.822;2023-05-12T11:32:19;100946.91;;;20.11;50.07
62544;BME280;48597;49.030;1.822;2023-05-12T11:34:44;100956.31;;;20.12;50.12
62544;BME280;48597;49.030;1.822;2023-05-12T11:37:11;100954.25;;;20.12;50.13
62544;BME280;48597;49.030;1.822;2023-05-12T11:39:36;100954.69;;;20.11;49.99
62544;BME280;48597;49.030;1.822;2023-05-12T11:42:03;100948.97;;;20.11;50.16
62544;BME280;48597;49.030;1.822;2023-05-12T11:44:30;100962.84;;;20.12;50.09
62544;BME280;48597;49.030;1.822;2023-05-12T11:47:14;100959.16;;;20.12;50.02
62544;BME280;48597;49.030;1.822;2023-05-12T11:49:47;100951.84;;;20.11;50.16
62544;BME280;48597;49.030;1.822;2023-05-12T11:52:14;100958.34;;;20.11;50.19
62544;BME280;48597;49.030;1.822;2023-05-12T11:54:47;100955.50;;;20.11;50.19
62544;BME280;48597;49.030;1.822;2023-05-12T11:57:26;100958.34;;;20.11;50.08
62544;BME280;48597;49.030;1.822;2023-05-12T12:00:05;100944.06;;;20.11;50.15
62544;BME280;48597;49.030;1.822;2023-05-12T12:02:32;100952.63;;;20.11;50.29
62544;BME280;48597;49.030;1.822;2023-05-12T12:04:58;100951.03;;;20.10;50.16
62544;BME280;48597;49.030;1.822;2023-05-12T12:07:31;100949.78;;;20.11;50.17
62544;BME280;48597;49.030;1.822;2023-05-12T12:09:58;100954.69;;;20.11;50.20
62544;BME280;48597;49.030;1.822;2023-05-12T12:12:24;100945.31;;;20.10;50.27
62544;BME280;48597;49.030;1.822;2023-05-12T12:14:49;100956.31;;;20.12;50.28
62544;BME280;48597;49.030;1.822;2023-05-12T12:17:15;100945.66;;;20.12;50.23
62544;BME280;48597;49.030;1.822;2023-05-12T12:19:41;100947.72;;;20.12;50.16
62544;BME280;48597;49.030;1.822;2023-05-12T12:22:06;100936.72;;;20.10;50.30
62544;BME280;48597;49.030;1.822;2023-05-12T12:24:32;100943.25;;;20.11;50.20
62544;BME280;48597;49.030;1.822;2023-05-12T12:26:58;100942.00;;;20.12;50.16
62544;BME280;48597;49.030;1.822;2023-05-12T12:29:24;100943.25;;;20.11;50.27
62544;BME280;48597;49.030;1.822;2023-05-12T12:31:51;100946.91;;;20.11;50.32
62544;BME280;48597;49.030;1.822;2023-05-12T12:34:17;100948.16;;;20.10;50.40
62544;BME280;48597;49.030;1.822;2023-05-12T12:36:42;100952.63;;;20.11;50.20
62544;BME280;48597;49.030;1.822;2023-05-12T12:39:07;100969.00;;;20.11;50.30
62544;BME280;48597;49.030;1.822;2023-05-12T12:41:34;100955.94;;;20.10;50.24
62544;BME280;48597;49.030;1.822;2023-05-12T12:43:59;100963.72;;;20.09;50.21
62544;BME280;48597;49.030;1.822;2023-05-12T12:46:25;100965.78;;;20.09;50.23
62544;BME280;48597;49.030;1.822;2023-05-12T12:48:50;100960.88;;;20.09;50.26
62544;BME280;48597;49.030;1.822;2023-05-12T12:51:16;100966.59;;;20.09;50.37
62544;BME280;48597;49.030;1.822;2023-05-12T12:53:42;100972.31;;;20.09;50.40